Maryland AWOS List, Phone Numbers

USA |  
| Search AWOS

Rocky Mountain States: Montana | Wyoming | Colorado | New Mexico

Complete weather reports: Maryland

Legend: KFNL = METAR available Follow your local AWOS on AV Mobile = METAR available on AV Mobile
Station Maryland Location Frequency Phone
KAPGFAA ID APG, KAPG 281156Z 23006KT 7SM SKC 24/22 A2960 Follow KAPG on AV Mobile Phillips Army Air Field / Aberdeen
K61WICAO ID K61W Annapolis Coast Guard Station
KNAKICAO ID KNAK, KNAK 281154Z AUTO VRB06KT 9SM CLR 26/21 A2960 RMK AO2 SLP025 T02560211 10256 20233 51009 Follow KNAK on AV Mobile ANNAPOLIS US NAVAL ACADEMY
KLWXICAO ID KLWX Baltimore / DC Nexrad
KDMHICAO ID KDMH, KDMH 281154Z AUTO 25/20 A2960 RMK AO1 SLP023 70010 T02500200 10250 20217 53005 Follow KDMH on AV Mobile BALTIMORE DOWNTOWN
KMTNFAA ID MTN, AWOS-3, KMTN 281155Z 23006KT 10SM FEW150 25/23 A2961 Follow KMTN on AV Mobile Baltimore / Martin 410-682-8848
KBWIFAA ID BWI, ASOS, KBWI 281154Z 24006KT 10SM FEW070 SCT140 24/21 A2960 Follow KBWI on AV Mobile BALTIMORE-WASHINGTON INTERNATIONAL 410-691-1278
4MDFAA ID 4MD, Belfort PIER 7
KCGEFAA ID CGE, AWOS-3, KCGE 281149Z AUTO 24005KT 10SM CLR 26/22 A2961 RMK AO1 Follow KCGE on AV Mobile CAMBRIDGE 120.675 410-228-7559
KADWFAA ID ADW, KADW 281158Z AUTO 25007KT 10SM CLR 25/22 A2962 RMK AO2 SLP034 T02530222 10255 20219 52010 $ Follow KADW on AV Mobile Camp Springs / Andrews Air Force Base
W32FAA ID W32, Belfort WASHINGTON EXECUTIVE/HYDE FIELD
KCGSFAA ID CGS, AWOS-3, KCGS 281145Z AUTO 00000KT 10SM CLR 25/21 A2961 RMK AO1 Follow KCGS on AV Mobile COLLEGE PARK 121.225 301-864-5497
K66WICAO ID K66W Cove Point Coast Guard Light Station
KCBEFAA ID CBE, AWOS-3, KCBE 281149Z AUTO 35003KT 10SM BKN036 BKN060 BKN065 22/17 A2971 Follow KCBE on AV Mobile Cumberland, Greater Cumberland Regional Airport 128.625 304-738-0451
KESNFAA ID ESN, AWOS-3, KESN 281155Z 27005KT 10SM SKC 27/24 A2964 Follow KESN on AV Mobile Easton / Newman Field 124.475 410-822-2817
KFMEFAA ID FME, AWOS-3, KFME 281148Z AUTO 24003KT 4SM CLR 21/20 A2963 RMK AO1 Follow KFME on AV Mobile Fort Meade / Tipton 123.925
KJWXICAO ID KJWX Fort Ritchie
KFDKFAA ID FDK, AWOS-3, KFDK 281145Z 25010G15KT 10SM BKN039 BKN100 24/21 A2965 Follow KFDK on AV Mobile Frederick, Frederick Municipal Airport 124.875 301-600-1457
KGAIFAA ID GAI, AWOS-3, KGAI 281155Z AUTO 27004KT 10SM CLR 22/19 A2967 RMK AO1 10220 20180 52010 Follow KGAI on AV Mobile GAITHERSBURG 128.275 301-977-2971
KHGRFAA ID HGR, ASOS, KHGR 281153Z AUTO 26009KT 10SM CLR 22/18 A2963 RMK AO2 SLP038 60003 70074 T02170178 10217 20178 53016 Follow KHGR on AV Mobile HAGERSTOWN REGIONAL AIRPORT 126.375 301-745-3497
K2W6FAA ID 2W6, AWOS-3, K2W6 281148Z AUTO 25006KT 10SM CLR 25/20 A2965 RMK AO1 Follow K2W6 on AV Mobile LEONARDTOWN 119.575 301-373-6514
K2G4FAA ID 2G4, AWOS-3, K2G4 281145Z AUTO 29008G18KT 262V322 7SM BKN004 OVC008 14/ A2977 RMK AO1 Follow K2G4 on AV Mobile OAKLAND 120.125 301-746-8443
KW30ICAO ID KW30 Ocean City
KN80ICAO ID KN80 Ocean City, Ocean City Municipal Airport
KOXBFAA ID OXB, ASOS, KOXB 281153Z AUTO 27008KT 9SM CLR 27/23 A2961 RMK AO2 SLP026 T02670233 10267 20239 53003 TSNO Follow KOXB on AV Mobile OCEAN CITY MUNICIPAL AIRPORT 119.025 410-213-1530
KNHKFAA ID NHK, KNHK 281152Z 26011KT 10SM FEW120 FEW250 26/21 A2962 RMK AO2 SLP030 T02560211 10261 20239 52007 $ Follow KNHK on AV Mobile NAS PATUXENT RIVER MD
KSBYFAA ID SBY, ASOS, KSBY 280155Z 18006KT 10SM CLR 26/22 A2973 Follow KSBY on AV Mobile SALISBURY-WICOMICO CTY REG 118.325 410-341-0868
KNUIFAA ID NUI, KNUI 281153Z AUTO 26009KT 10SM CLR 26/21 A2962 RMK AO2 SLP029 T02610206 10261 20244 50006 Follow KNUI on AV Mobile KNUI WEBSTER FIELD ANNEX
KW29FAA ID W29, AWOS-3, KW29 281149Z AUTO 25008KT 10SM 25/22 A2960 RMK AO1 Follow KW29 on AV Mobile STEVENSVILLE 120.575 410-643-8795
K67WICAO ID K67W Stillpond Coast Guard Station
K65WICAO ID K65W Thomas Point Coast Guard Station
KDMWFAA ID DMW, AWOS-3, KDMW 281150Z AUTO 26009KT 10SM CLR 21/19 A2962 RMK AO2 Follow KDMW on AV Mobile WESTMINSTER 121.25 410-876-1281

Click on the AV Mobile icon AV Mobile icon by any station to follow that AWOS feed on AirportView.net Mobile.

Garmin aera 796 $1999 at Avionics Specialists LLC
Bose A20 Aviation Headsets $995 at Avionics Specialists LLC